createdAt,value
2019-05-06T00:01:33.985Z,44.80
2019-05-06T00:04:01.043Z,44.80
2019-05-06T00:06:27.387Z,44.90
2019-05-06T00:08:54.545Z,45.00
2019-05-06T00:11:20.889Z,45.10
2019-05-06T00:13:47.027Z,45.10
2019-05-06T00:16:14.346Z,45.20
2019-05-06T00:18:40.724Z,45.30
2019-05-06T00:21:06.917Z,45.40
2019-05-06T00:23:44.986Z,45.50
2019-05-06T00:26:13.647Z,45.60
2019-05-06T00:28:42.097Z,45.70
2019-05-06T00:33:36.061Z,45.80
2019-05-06T00:36:04.558Z,46.30
2019-05-06T00:41:03.894Z,45.80
2019-05-06T00:43:29.639Z,45.90
2019-05-06T00:45:55.767Z,46.00
2019-05-06T00:48:21.955Z,46.00
2019-05-06T00:50:48.091Z,46.00
2019-05-06T00:53:23.817Z,46.00
2019-05-06T00:55:49.931Z,46.00
2019-05-06T00:58:16.116Z,46.00
2019-05-06T01:00:44.161Z,46.00
2019-05-06T01:03:10.378Z,46.00
2019-05-06T01:05:39.731Z,46.00
2019-05-06T01:08:06.208Z,45.90
2019-05-06T01:10:34.426Z,45.90
2019-05-06T01:13:20.514Z,45.90
2019-05-06T01:15:46.646Z,45.80
2019-05-06T01:18:13.810Z,45.80
2019-05-06T01:20:40.093Z,45.90
2019-05-06T01:25:34.447Z,45.90
2019-05-06T01:28:00.110Z,46.00
2019-05-06T01:32:54.367Z,46.00
2019-05-06T01:35:20.711Z,46.00
2019-05-06T01:37:48.789Z,46.10
2019-05-06T01:40:35.181Z,46.20
2019-05-06T01:43:03.663Z,46.20
2019-05-06T01:45:30.003Z,46.20
2019-05-06T01:47:56.201Z,46.40
2019-05-06T01:50:23.558Z,46.50
2019-05-06T01:52:49.946Z,46.60
2019-05-06T01:55:16.090Z,46.70
2019-05-06T01:57:44.337Z,46.80
2019-05-06T02:00:11.308Z,46.90
2019-05-06T02:02:37.758Z,46.90
2019-05-06T02:05:04.922Z,46.90
2019-05-06T02:07:31.053Z,46.90
2019-05-06T02:09:57.571Z,47.00
2019-05-06T02:12:24.630Z,46.90
2019-05-06T02:14:50.884Z,46.90
2019-05-06T02:17:17.047Z,46.90
2019-05-06T02:19:43.823Z,47.00
2019-05-06T02:22:13.629Z,47.00
2019-05-06T02:24:44.760Z,47.00
2019-05-06T02:27:10.898Z,47.10
2019-05-06T02:29:48.097Z,47.20
2019-05-06T02:32:35.792Z,47.20
2019-05-06T02:35:14.306Z,47.30
2019-05-06T02:37:46.432Z,47.30
2019-05-06T02:40:24.849Z,47.50
2019-05-06T02:42:54.129Z,47.80
2019-05-06T02:45:18.950Z,47.80
2019-05-06T02:48:04.530Z,48.00
2019-05-06T02:50:44.656Z,48.10
2019-05-06T02:53:13.187Z,48.10
2019-05-06T02:55:38.870Z,48.70
2019-05-06T02:58:05.018Z,48.30
2019-05-06T03:00:32.998Z,48.50
2019-05-06T03:02:59.611Z,48.60
2019-05-06T03:05:26.004Z,48.80
2019-05-06T03:07:56.947Z,48.80
2019-05-06T03:10:24.322Z,48.90
2019-05-06T03:12:48.712Z,48.90
2019-05-06T03:15:16.806Z,49.00
2019-05-06T03:17:43.476Z,49.20
2019-05-06T03:20:15.411Z,49.30
2019-05-06T03:22:43.876Z,49.50
2019-05-06T03:25:13.482Z,49.50
2019-05-06T03:27:39.846Z,49.60
2019-05-06T03:30:07.108Z,49.70
2019-05-06T03:32:41.258Z,49.90
2019-05-06T03:35:25.777Z,50.00
2019-05-06T03:37:32.868Z,50.10
2019-05-06T03:39:58.415Z,50.10
2019-05-06T03:42:24.596Z,50.20
2019-05-06T03:44:53.441Z,50.30
2019-05-06T03:47:27.625Z,50.40
2019-05-06T03:49:54.860Z,50.40
2019-05-06T03:52:23.176Z,50.50
2019-05-06T03:57:16.774Z,50.80
2019-05-06T03:59:43.707Z,51.00
2019-05-06T04:04:36.843Z,51.20
2019-05-06T04:07:03.596Z,51.40
2019-05-06T04:09:29.758Z,51.50
2019-05-06T04:11:56.450Z,51.60
2019-05-06T04:14:24.104Z,51.90
2019-05-06T04:16:55.087Z,52.10
2019-05-06T04:19:26.109Z,52.20
2019-05-06T04:21:57.488Z,52.30
2019-05-06T04:24:29.863Z,52.30
2019-05-06T04:27:33.883Z,52.30
2019-05-06T04:30:04.364Z,52.30
2019-05-06T04:32:34.088Z,52.00
2019-05-06T04:35:00.150Z,52.10
2019-05-06T04:37:26.667Z,52.00
2019-05-06T04:39:53.664Z,51.90
2019-05-06T04:44:46.189Z,51.70
2019-05-06T04:47:14.885Z,51.60
2019-05-06T04:49:43.422Z,52.10
2019-05-06T04:52:08.667Z,51.30
2019-05-06T04:54:35.452Z,51.20
2019-05-06T04:57:04.847Z,51.20
2019-05-06T04:59:32.451Z,51.20
2019-05-06T05:01:58.634Z,51.10
2019-05-06T05:04:32.226Z,51.00
2019-05-06T05:06:55.425Z,50.90
2019-05-06T05:09:23.027Z,50.80
2019-05-06T05:12:08.122Z,50.80
2019-05-06T05:14:36.190Z,50.70
2019-05-06T05:17:04.222Z,50.50
2019-05-06T05:19:32.788Z,50.40
2019-05-06T05:22:05.646Z,50.50
2019-05-06T05:29:24.675Z,50.50
2019-05-06T05:31:52.817Z,50.40
2019-05-06T05:34:19.904Z,50.40
2019-05-06T05:36:46.135Z,50.90
2019-05-06T05:39:23.338Z,50.30
2019-05-06T05:41:52.121Z,50.30
2019-05-06T05:44:22.660Z,50.30
2019-05-06T05:46:48.894Z,50.30
2019-05-06T05:49:24.599Z,50.30
2019-05-06T05:51:52.054Z,50.40
2019-05-06T05:56:48.019Z,50.30
2019-05-06T05:59:14.628Z,50.30
2019-05-06T06:01:43.476Z,50.00
2019-05-06T06:04:16.708Z,49.90
2019-05-06T06:06:42.850Z,49.80
2019-05-06T06:09:09.105Z,49.80
2019-05-06T06:11:49.398Z,49.70
2019-05-06T06:14:34.125Z,49.70
2019-05-06T06:17:05.026Z,49.70
2019-05-06T06:19:34.001Z,49.60
2019-05-06T06:22:04.378Z,49.60
2019-05-06T06:24:37.638Z,49.50
2019-05-06T06:29:32.385Z,49.10
2019-05-06T06:32:06.514Z,49.40
2019-05-06T06:34:34.673Z,50.30
2019-05-06T06:37:22.484Z,52.30
2019-05-06T06:39:50.119Z,54.20
2019-05-06T06:42:16.274Z,54.70
2019-05-06T06:44:42.480Z,53.90
2019-05-06T06:49:34.814Z,51.90
2019-05-06T06:54:27.537Z,50.60
2019-05-06T06:59:31.874Z,49.00
2019-05-06T07:02:02.598Z,49.00
2019-05-06T07:04:32.938Z,46.60
2019-05-06T07:07:02.755Z,45.30
2019-05-06T07:09:29.755Z,44.60
2019-05-06T07:11:56.137Z,44.20
2019-05-06T07:14:22.753Z,43.60
2019-05-06T07:19:17.383Z,41.00
2019-05-06T07:21:45.570Z,41.00
2019-05-06T07:24:13.089Z,40.50
2019-05-06T07:26:42.583Z,40.90
2019-05-06T07:29:15.280Z,39.80
2019-05-06T07:31:36.785Z,39.10
2019-05-06T07:34:02.946Z,36.60
2019-05-06T07:36:29.080Z,35.00
2019-05-06T07:43:52.529Z,30.70
2019-05-06T07:46:33.170Z,31.40
2019-05-06T07:48:59.456Z,32.90
2019-05-06T07:51:25.610Z,34.40
2019-05-06T07:53:52.522Z,34.40
2019-05-06T07:56:18.867Z,33.90
2019-05-06T07:58:45.089Z,32.30
2019-05-06T08:01:13.618Z,30.80
2019-05-06T08:03:39.722Z,30.00
2019-05-06T08:06:05.865Z,29.60
2019-05-06T08:08:33.659Z,29.60
2019-05-06T08:11:02.479Z,30.00
2019-05-06T08:18:21.915Z,31.00
2019-05-06T08:20:48.249Z,30.10
2019-05-06T08:25:44.493Z,29.10
2019-05-06T08:28:13.069Z,28.00
2019-05-06T08:33:05.010Z,27.70
2019-05-06T08:35:33.056Z,27.50
2019-05-06T08:37:59.527Z,27.40
2019-05-06T08:40:27.516Z,27.10
2019-05-06T08:47:45.702Z,27.80
2019-05-06T08:52:57.068Z,27.10
2019-05-06T08:55:34.303Z,26.80
2019-05-06T09:00:26.946Z,26.70
2019-05-06T09:05:19.116Z,27.80
2019-05-06T09:07:46.742Z,28.50
2019-05-06T09:10:13.314Z,28.00
2019-05-06T09:12:39.448Z,28.00
2019-05-06T09:15:05.822Z,28.00
2019-05-06T09:17:33.039Z,28.00
2019-05-06T09:19:59.345Z,28.00
2019-05-06T09:22:25.535Z,28.10
2019-05-06T09:24:53.097Z,28.10
2019-05-06T09:27:22.614Z,28.30
2019-05-06T09:29:52.124Z,28.50
2019-05-06T09:32:22.529Z,28.80
2019-05-06T09:34:52.755Z,28.90
2019-05-06T09:37:19.633Z,29.10
2019-05-06T09:39:46.270Z,29.10
2019-05-06T09:42:13.136Z,29.00
2019-05-06T09:44:42.760Z,29.10
2019-05-06T09:47:12.711Z,29.00
2019-05-06T09:49:42.369Z,29.10
2019-05-06T09:52:08.075Z,29.00
2019-05-06T09:54:42.814Z,29.20
2019-05-06T09:57:13.959Z,30.00
2019-05-06T09:59:42.027Z,29.80
2019-05-06T10:02:08.303Z,29.80
2019-05-06T10:04:34.506Z,30.10
2019-05-06T10:07:02.627Z,30.30
2019-05-06T10:09:28.719Z,30.50
2019-05-06T10:11:54.893Z,30.50
2019-05-06T10:14:23.228Z,36.90
2019-05-06T10:16:49.178Z,30.60
2019-05-06T10:19:15.310Z,30.60
2019-05-06T10:21:42.793Z,37.80
2019-05-06T10:24:09.164Z,30.50
2019-05-06T10:26:37.246Z,30.70
2019-05-06T10:29:05.392Z,31.30
2019-05-06T10:31:33.481Z,31.20
2019-05-06T10:34:14.393Z,31.40
2019-05-06T10:39:52.243Z,32.10
2019-05-06T10:42:24.152Z,32.10
2019-05-06T10:45:05.169Z,32.30
2019-05-06T10:47:33.035Z,32.60
2019-05-06T10:49:59.454Z,32.80
2019-05-06T10:52:27.539Z,33.00
2019-05-06T10:54:53.710Z,32.90
2019-05-06T10:57:22.150Z,32.70
2019-05-06T10:59:48.388Z,32.40
2019-05-06T11:02:19.370Z,32.40
2019-05-06T11:04:45.592Z,32.20
2019-05-06T11:07:12.437Z,32.00
2019-05-06T11:09:42.497Z,32.00
2019-05-06T11:14:33.915Z,32.10
2019-05-06T11:17:00.047Z,33.00
2019-05-06T11:19:26.224Z,34.00
2019-05-06T11:21:53.163Z,34.70
2019-05-06T11:24:19.459Z,34.00
2019-05-06T11:26:45.630Z,32.70
2019-05-06T11:29:13.736Z,32.10
2019-05-06T11:31:43.313Z,31.20
2019-05-06T11:34:28.575Z,30.30
2019-05-06T11:36:59.699Z,29.90
2019-05-06T11:39:25.929Z,29.50
2019-05-06T11:42:14.533Z,29.30
2019-05-06T11:44:20.183Z,29.20
2019-05-06T11:46:46.366Z,29.30
2019-05-06T11:49:12.685Z,29.20
2019-05-06T11:51:38.905Z,29.20
2019-05-06T11:54:16.332Z,29.20
2019-05-06T11:56:47.564Z,29.30
2019-05-06T11:59:02.459Z,29.20
2019-05-06T12:01:33.646Z,29.70
2019-05-06T12:03:59.886Z,29.70
2019-05-06T12:06:26.197Z,29.70
2019-05-06T12:08:52.670Z,30.00
2019-05-06T12:11:18.837Z,30.00
2019-05-06T12:13:45.011Z,30.00
2019-05-06T12:16:14.026Z,30.20
2019-05-06T12:18:39.507Z,30.00
2019-05-06T12:21:11.301Z,30.60
2019-05-06T12:23:35.299Z,30.00
2019-05-06T12:26:02.414Z,30.00
2019-05-06T12:28:29.205Z,30.00
2019-05-06T12:30:55.351Z,30.00
2019-05-06T12:33:29.133Z,29.50
2019-05-06T12:35:56.687Z,28.60
2019-05-06T12:38:34.054Z,28.10
2019-05-06T12:41:03.158Z,27.50
2019-05-06T12:43:30.249Z,27.00
2019-05-06T12:46:04.038Z,26.90
2019-05-06T12:48:47.099Z,27.00
2019-05-06T12:51:13.240Z,27.00
2019-05-06T12:53:39.410Z,27.10
2019-05-06T12:56:05.551Z,27.20
2019-05-06T12:58:31.726Z,27.20
2019-05-06T13:00:57.973Z,27.30
2019-05-06T13:03:24.159Z,27.50
2019-05-06T13:05:52.106Z,27.60
2019-05-06T13:08:20.821Z,27.80
2019-05-06T13:10:46.464Z,28.00
2019-05-06T13:13:12.994Z,28.20
2019-05-06T13:15:40.265Z,28.40
2019-05-06T13:18:07.528Z,28.40
2019-05-06T13:20:35.088Z,28.80
2019-05-06T13:23:20.903Z,29.10
2019-05-06T13:25:45.500Z,29.30
2019-05-06T13:28:13.720Z,29.60
2019-05-06T13:30:39.864Z,29.90
2019-05-06T13:33:26.070Z,29.60
2019-05-06T13:35:52.731Z,30.40
2019-05-06T13:38:18.916Z,30.60
2019-05-06T13:40:54.075Z,30.90
2019-05-06T13:43:23.321Z,30.90
2019-05-06T13:45:56.733Z,30.70
2019-05-06T13:48:28.019Z,30.30
2019-05-06T13:51:12.418Z,30.20
2019-05-06T13:53:41.763Z,30.00
2019-05-06T13:56:06.835Z,29.80
2019-05-06T13:58:33.044Z,29.60
2019-05-06T14:01:02.900Z,29.20
2019-05-06T14:03:29.205Z,29.20
2019-05-06T14:05:55.410Z,29.20
2019-05-06T14:08:22.208Z,29.20
2019-05-06T14:10:57.546Z,29.30
2019-05-06T14:13:16.559Z,29.30
2019-05-06T14:15:42.739Z,29.40
2019-05-06T14:18:08.881Z,29.30
2019-05-06T14:20:35.089Z,29.40
2019-05-06T14:23:02.264Z,29.30
2019-05-06T14:25:35.398Z,29.20
2019-05-06T14:28:12.260Z,29.10
2019-05-06T14:30:39.939Z,29.10
2019-05-06T14:33:06.087Z,29.00
2019-05-06T14:35:32.608Z,28.90
2019-05-06T14:37:58.870Z,28.90
2019-05-06T14:40:26.990Z,28.90
2019-05-06T14:42:53.241Z,28.90
2019-05-06T14:45:19.441Z,28.90
2019-05-06T14:47:45.584Z,28.90
2019-05-06T14:50:14.487Z,28.90
2019-05-06T14:52:42.475Z,28.70
2019-05-06T14:55:12.591Z,28.80
2019-05-06T14:57:38.536Z,29.40
2019-05-06T15:00:07.513Z,29.10
2019-05-06T15:02:34.171Z,29.10
2019-05-06T15:05:03.054Z,29.30
2019-05-06T15:07:28.546Z,29.20
2019-05-06T15:10:07.868Z,29.20
2019-05-06T15:12:23.338Z,29.20
2019-05-06T15:14:52.374Z,29.30
2019-05-06T15:17:18.380Z,29.30
2019-05-06T15:19:44.519Z,29.30
2019-05-06T15:22:12.831Z,29.50
2019-05-06T15:24:39.099Z,29.60
2019-05-06T15:27:05.292Z,29.70
2019-05-06T15:29:32.001Z,29.90
2019-05-06T15:32:02.862Z,29.90
2019-05-06T15:34:46.835Z,29.90
2019-05-06T15:37:14.880Z,30.00
2019-05-06T15:39:41.081Z,30.00
2019-05-06T15:42:07.541Z,30.10
2019-05-06T15:44:35.455Z,30.00
2019-05-06T15:47:03.221Z,30.00
2019-05-06T15:49:31.869Z,30.00
2019-05-06T15:51:57.707Z,30.00
2019-05-06T15:54:23.852Z,29.90
2019-05-06T15:56:50.039Z,29.90
2019-05-06T15:59:16.186Z,29.80
2019-05-06T16:01:43.114Z,29.80
2019-05-06T16:04:09.395Z,29.80
2019-05-06T16:06:35.581Z,29.80
2019-05-06T16:09:03.649Z,29.90
2019-05-06T16:11:29.930Z,29.80
2019-05-06T16:13:56.076Z,30.00
2019-05-06T16:16:22.812Z,30.30
2019-05-06T16:18:49.072Z,30.20
2019-05-06T16:21:15.274Z,30.00
2019-05-06T16:23:54.793Z,30.10
2019-05-06T16:26:22.822Z,30.20
2019-05-06T16:28:48.757Z,30.10
2019-05-06T16:31:14.981Z,30.10
2019-05-06T16:33:43.084Z,30.10
2019-05-06T16:36:09.212Z,30.30
2019-05-06T16:38:35.387Z,30.30
2019-05-06T16:41:10.520Z,30.40
2019-05-06T16:43:33.681Z,30.40
2019-05-06T16:45:57.863Z,30.40
2019-05-06T16:48:24.036Z,30.50
2019-05-06T16:50:50.594Z,30.60
2019-05-06T16:53:16.756Z,31.60
2019-05-06T16:55:52.725Z,33.90
2019-05-06T16:58:26.863Z,31.00
2019-05-06T17:00:53.019Z,31.00
2019-05-06T17:03:23.078Z,31.20
2019-05-06T17:06:09.438Z,31.20
2019-05-06T17:08:36.464Z,31.20
2019-05-06T17:11:04.735Z,31.30
2019-05-06T17:13:31.117Z,31.40
2019-05-06T17:15:59.593Z,31.50
2019-05-06T17:18:25.837Z,31.70
2019-05-06T17:20:52.077Z,31.70
2019-05-06T17:23:18.245Z,31.70
2019-05-06T17:25:44.587Z,31.80
2019-05-06T17:28:22.203Z,31.80
2019-05-06T17:31:02.444Z,31.80
2019-05-06T17:33:33.505Z,31.80
2019-05-06T17:36:03.131Z,31.80
2019-05-06T17:38:32.126Z,31.80
2019-05-06T17:40:59.030Z,31.80
2019-05-06T17:43:25.565Z,31.70
2019-05-06T17:46:01.329Z,31.90
2019-05-06T17:48:38.763Z,31.90
2019-05-06T17:51:09.198Z,31.80
2019-05-06T17:53:37.749Z,31.90
2019-05-06T17:56:03.914Z,31.90
2019-05-06T17:58:30.331Z,31.80
2019-05-06T18:00:57.610Z,31.90
2019-05-06T18:03:24.952Z,31.80
2019-05-06T18:05:52.591Z,31.90
2019-05-06T18:08:19.285Z,31.90
2019-05-06T18:10:45.455Z,32.00
2019-05-06T18:13:12.578Z,32.40
2019-05-06T18:15:39.314Z,32.30
2019-05-06T18:18:05.490Z,32.40
2019-05-06T18:20:33.586Z,32.50
2019-05-06T18:23:01.955Z,32.60
2019-05-06T18:25:27.755Z,33.50
2019-05-06T18:27:54.740Z,33.00
2019-05-06T18:30:28.258Z,33.10
2019-05-06T18:32:49.087Z,33.30
2019-05-06T18:35:15.271Z,33.50
2019-05-06T18:37:42.625Z,34.30
2019-05-06T18:40:09.420Z,33.70
2019-05-06T18:42:35.590Z,33.70
2019-05-06T18:45:03.819Z,33.80
2019-05-06T18:47:30.009Z,34.00
2019-05-06T18:49:56.186Z,34.00
2019-05-06T18:52:22.976Z,34.00
2019-05-06T18:54:49.322Z,34.10
2019-05-06T18:57:15.470Z,34.20
2019-05-06T18:59:42.474Z,34.30
2019-05-06T19:02:08.918Z,34.40
2019-05-06T19:04:37.006Z,34.50
2019-05-06T19:07:10.521Z,34.70
2019-05-06T19:09:33.223Z,35.40
2019-05-06T19:11:59.373Z,42.00
2019-05-06T19:14:25.547Z,35.10
2019-05-06T19:16:54.599Z,37.80
2019-05-06T19:19:19.797Z,35.50
2019-05-06T19:21:46.027Z,35.60
2019-05-06T19:24:12.334Z,35.70
2019-05-06T19:26:38.731Z,35.70
2019-05-06T19:29:04.927Z,35.80
2019-05-06T19:31:32.259Z,35.90
2019-05-06T19:33:58.968Z,35.90
2019-05-06T19:36:25.140Z,36.00
2019-05-06T19:38:51.281Z,36.00
2019-05-06T19:41:17.522Z,38.50
2019-05-06T19:43:43.698Z,36.20
2019-05-06T19:46:11.979Z,36.30
2019-05-06T19:48:37.958Z,36.40
2019-05-06T19:51:04.137Z,36.60
2019-05-06T19:53:32.269Z,36.80
2019-05-06T19:55:58.384Z,36.90
2019-05-06T19:58:24.521Z,37.10
2019-05-06T20:00:52.816Z,37.30
2019-05-06T20:03:20.272Z,37.40
2019-05-06T20:05:54.609Z,37.50
2019-05-06T20:08:23.150Z,37.70
2019-05-06T20:11:06.313Z,37.20
2019-05-06T20:13:32.468Z,37.90
2019-05-06T20:15:58.654Z,38.00
2019-05-06T20:18:24.801Z,38.10
2019-05-06T20:20:52.860Z,38.30
2019-05-06T20:23:19.051Z,39.00
2019-05-06T20:25:45.460Z,38.50
2019-05-06T20:28:13.225Z,38.60
2019-05-06T20:30:39.546Z,38.70
2019-05-06T20:33:05.685Z,38.90
2019-05-06T20:35:32.336Z,38.70
2019-05-06T20:37:58.485Z,39.10
2019-05-06T20:40:24.698Z,39.20
2019-05-06T20:42:51.316Z,39.30
2019-05-06T20:45:17.794Z,39.40
2019-05-06T20:47:43.936Z,39.50
2019-05-06T20:50:13.265Z,39.70
2019-05-06T20:52:39.553Z,39.60
2019-05-06T20:55:12.664Z,39.70
2019-05-06T20:57:34.369Z,39.80
2019-05-06T21:00:00.500Z,40.00
2019-05-06T21:02:26.767Z,40.10
2019-05-06T21:04:52.918Z,40.20
2019-05-06T21:07:19.395Z,40.40
2019-05-06T21:09:45.541Z,40.50
2019-05-06T21:12:11.691Z,40.60
2019-05-06T21:14:37.875Z,40.70
2019-05-06T21:17:04.035Z,40.80
2019-05-06T21:19:30.216Z,40.90
2019-05-06T21:21:56.431Z,41.00
2019-05-06T21:24:22.754Z,41.00
2019-05-06T21:26:52.988Z,41.10
2019-05-06T21:29:18.691Z,41.10
2019-05-06T21:31:44.846Z,41.10
2019-05-06T21:34:12.829Z,41.20
2019-05-06T21:36:39.105Z,41.10
2019-05-06T21:39:06.037Z,41.20
2019-05-06T21:41:32.733Z,41.10
2019-05-06T21:44:02.490Z,41.30
2019-05-06T21:46:28.695Z,41.40
2019-05-06T21:48:54.853Z,41.80
2019-05-06T21:51:22.211Z,41.40
2019-05-06T21:53:48.620Z,41.40
2019-05-06T21:56:14.760Z,41.60
2019-05-06T21:58:42.829Z,41.60
2019-05-06T22:01:09.293Z,41.60
2019-05-06T22:03:35.796Z,41.70
2019-05-06T22:06:02.464Z,41.70
2019-05-06T22:08:28.588Z,41.90
2019-05-06T22:10:54.765Z,41.80
2019-05-06T22:13:21.861Z,42.00
2019-05-06T22:15:48.113Z,42.00
2019-05-06T22:18:14.815Z,42.10
2019-05-06T22:20:59.833Z,42.10
2019-05-06T22:23:28.028Z,42.10
2019-05-06T22:26:07.779Z,42.00
2019-05-06T22:28:22.761Z,42.10
2019-05-06T22:30:49.053Z,42.30
2019-05-06T22:33:15.240Z,42.40
2019-05-06T22:35:43.025Z,42.40
2019-05-06T22:38:09.373Z,42.50
2019-05-06T22:40:35.596Z,42.60
2019-05-06T22:43:03.177Z,42.60
2019-05-06T22:45:29.725Z,42.70
2019-05-06T22:47:55.874Z,42.80
2019-05-06T22:50:22.572Z,43.10
2019-05-06T22:52:49.154Z,43.00
2019-05-06T22:55:15.543Z,43.00
2019-05-06T22:57:42.327Z,43.10
2019-05-06T23:00:15.018Z,43.20
2019-05-06T23:02:43.466Z,43.20
2019-05-06T23:05:32.551Z,43.10
2019-05-06T23:07:59.396Z,43.20
2019-05-06T23:10:25.815Z,43.30
2019-05-06T23:12:52.367Z,43.30
2019-05-06T23:15:18.678Z,43.40
2019-05-06T23:17:44.843Z,43.50
2019-05-06T23:20:11.212Z,43.50
2019-05-06T23:22:37.367Z,43.60
2019-05-06T23:25:05.371Z,43.60
2019-05-06T23:27:31.515Z,43.70
2019-05-06T23:29:58.077Z,43.70
2019-05-06T23:32:24.228Z,43.80
2019-05-06T23:34:52.383Z,43.90
2019-05-06T23:37:18.530Z,43.80
2019-05-06T23:40:42.784Z,44.00
2019-05-06T23:44:05.501Z,44.10
2019-05-06T23:47:28.626Z,43.90
2019-05-06T23:50:51.214Z,44.50
2019-05-06T23:54:13.794Z,44.10
2019-05-06T23:56:42.868Z,44.30
2019-05-06T23:59:12.484Z,44.40
